X  Schlie├čen METAR Luftfahrt Wetterdaten     EDDM Munich Airport
Temperatur
-1°C Temperatur
-2°C Taupunkt
93% Feuchtigkeit



Wind
11 km/h
7 MPS
3 m/s
6 Ktn



80°
O
Aktuelle Wetterlage

Nebel Nebel
Luftdruck 1001.92 (hPa) - 29.59 (inchHg)
Sichtweite 3.1 (Meile) - 5 (Km)
Flughafen
Flughafen Code EDDM

Position : Munich Airport
Entfernung: 73 (Km)

Metar:
EDDM 090920Z AUTO 08006KT 5000 BR OVC004 M01/M02 Q1002 TEMPO 4000

Zeit: 09-12-2022 10:20 CET